sensor_id;sensor_type;location;lat;lon;timestamp;temperature;humidity
18690;DHT22;9782;52.930;15.562;2023-07-24T00:01:48;17.60;99.90
18690;DHT22;9782;52.930;15.562;2023-07-24T00:04:15;17.60;99.90
18690;DHT22;9782;52.930;15.562;2023-07-24T00:06:42;17.60;99.90
18690;DHT22;9782;52.930;15.562;2023-07-24T00:09:10;17.50;99.90
18690;DHT22;9782;52.930;15.562;2023-07-24T00:11:37;17.50;99.90
18690;DHT22;9782;52.930;15.562;2023-07-24T00:14:03;17.50;1.00
18690;DHT22;9782;52.930;15.562;2023-07-24T00:16:30;17.50;1.00
18690;DHT22;9782;52.930;15.562;2023-07-24T00:18:57;17.50;1.00
18690;DHT22;9782;52.930;15.562;2023-07-24T00:21:24;17.50;1.00
18690;DHT22;9782;52.930;15.562;2023-07-24T00:23:51;17.50;1.00
18690;DHT22;9782;52.930;15.562;2023-07-24T00:26:21;17.50;1.00
18690;DHT22;9782;52.930;15.562;2023-07-24T00:28:48;17.60;1.00
18690;DHT22;9782;52.930;15.562;2023-07-24T00:31:15;17.50;1.00
18690;DHT22;9782;52.930;15.562;2023-07-24T00:33:42;17.60;1.00
18690;DHT22;9782;52.930;15.562;2023-07-24T00:36:09;17.60;1.00
18690;DHT22;9782;52.930;15.562;2023-07-24T00:38:36;17.60;1.00
18690;DHT22;9782;52.930;15.562;2023-07-24T00:41:02;17.60;1.00
18690;DHT22;9782;52.930;15.562;2023-07-24T00:43:31;17.60;1.00
18690;DHT22;9782;52.930;15.562;2023-07-24T00:45:57;17.60;1.00
18690;DHT22;9782;52.930;15.562;2023-07-24T00:48:24;17.60;1.00
18690;DHT22;9782;52.930;15.562;2023-07-24T00:50:51;17.60;1.00
18690;DHT22;9782;52.930;15.562;2023-07-24T00:53:19;17.60;1.00
18690;DHT22;9782;52.930;15.562;2023-07-24T00:55:46;17.70;1.00
18690;DHT22;9782;52.930;15.562;2023-07-24T00:58:14;17.60;1.00
18690;DHT22;9782;52.930;15.562;2023-07-24T01:00:44;17.60;1.00
18690;DHT22;9782;52.930;15.562;2023-07-24T01:03:11;17.70;1.00
18690;DHT22;9782;52.930;15.562;2023-07-24T01:05:38;17.70;1.00
18690;DHT22;9782;52.930;15.562;2023-07-24T01:08:06;17.80;1.00
18690;DHT22;9782;52.930;15.562;2023-07-24T01:10:33;17.80;1.00
18690;DHT22;9782;52.930;15.562;2023-07-24T01:13:05;17.90;1.00
18690;DHT22;9782;52.930;15.562;2023-07-24T01:15:37;18.00;1.00
18690;DHT22;9782;52.930;15.562;2023-07-24T01:18:09;18.00;1.00
18690;DHT22;9782;52.930;15.562;2023-07-24T01:20:38;18.10;1.00
18690;DHT22;9782;52.930;15.562;2023-07-24T01:23:22;18.20;1.00
18690;DHT22;9782;52.930;15.562;2023-07-24T01:26:01;18.20;1.00
18690;DHT22;9782;52.930;15.562;2023-07-24T01:28:28;18.30;1.00
18690;DHT22;9782;52.930;15.562;2023-07-24T01:30:56;18.30;1.00
18690;DHT22;9782;52.930;15.562;2023-07-24T01:33:24;18.40;1.00
18690;DHT22;9782;52.930;15.562;2023-07-24T01:35:54;18.40;1.00
18690;DHT22;9782;52.930;15.562;2023-07-24T01:38:22;18.40;1.00
18690;DHT22;9782;52.930;15.562;2023-07-24T01:40:51;18.40;1.00
18690;DHT22;9782;52.930;15.562;2023-07-24T01:43:19;18.50;1.00
18690;DHT22;9782;52.930;15.562;2023-07-24T01:45:46;18.50;1.00
18690;DHT22;9782;52.930;15.562;2023-07-24T01:48:13;18.50;1.00
18690;DHT22;9782;52.930;15.562;2023-07-24T01:50:40;18.50;99.90
18690;DHT22;9782;52.930;15.562;2023-07-24T01:53:06;18.50;99.90
18690;DHT22;9782;52.930;15.562;2023-07-24T01:55:33;18.60;99.90
18690;DHT22;9782;52.930;15.562;2023-07-24T01:58:00;18.60;99.90
18690;DHT22;9782;52.930;15.562;2023-07-24T02:00:28;18.60;99.90
18690;DHT22;9782;52.930;15.562;2023-07-24T02:02:55;18.60;99.90
18690;DHT22;9782;52.930;15.562;2023-07-24T02:05:22;18.60;99.90
18690;DHT22;9782;52.930;15.562;2023-07-24T02:07:49;18.60;99.90
18690;DHT22;9782;52.930;15.562;2023-07-24T02:10:16;18.60;99.90
18690;DHT22;9782;52.930;15.562;2023-07-24T02:12:42;18.60;99.90
18690;DHT22;9782;52.930;15.562;2023-07-24T02:15:10;18.60;99.90
18690;DHT22;9782;52.930;15.562;2023-07-24T02:17:38;18.60;99.90
18690;DHT22;9782;52.930;15.562;2023-07-24T02:20:06;18.70;99.90
18690;DHT22;9782;52.930;15.562;2023-07-24T02:22:33;18.60;99.90
18690;DHT22;9782;52.930;15.562;2023-07-24T02:24:59;18.70;99.90
18690;DHT22;9782;52.930;15.562;2023-07-24T02:27:27;18.70;99.90
18690;DHT22;9782;52.930;15.562;2023-07-24T02:29:56;18.80;99.90
18690;DHT22;9782;52.930;15.562;2023-07-24T02:32:23;18.80;99.90
18690;DHT22;9782;52.930;15.562;2023-07-24T02:34:52;18.80;99.90
18690;DHT22;9782;52.930;15.562;2023-07-24T02:37:19;18.80;99.90
18690;DHT22;9782;52.930;15.562;2023-07-24T02:39:46;18.90;99.90
18690;DHT22;9782;52.930;15.562;2023-07-24T02:42:13;18.90;99.90
18690;DHT22;9782;52.930;15.562;2023-07-24T02:44:40;18.90;99.90
18690;DHT22;9782;52.930;15.562;2023-07-24T02:47:07;18.90;99.90
18690;DHT22;9782;52.930;15.562;2023-07-24T02:49:33;18.90;99.90
18690;DHT22;9782;52.930;15.562;2023-07-24T02:52:02;18.90;99.90
18690;DHT22;9782;52.930;15.562;2023-07-24T02:54:29;18.90;99.90
18690;DHT22;9782;52.930;15.562;2023-07-24T02:56:56;18.90;1.00
18690;DHT22;9782;52.930;15.562;2023-07-24T02:59:23;18.90;1.00
18690;DHT22;9782;52.930;15.562;2023-07-24T03:01:50;18.90;1.00
18690;DHT22;9782;52.930;15.562;2023-07-24T03:04:17;19.00;1.00
18690;DHT22;9782;52.930;15.562;2023-07-24T03:06:43;18.90;1.00
18690;DHT22;9782;52.930;15.562;2023-07-24T03:09:12;18.90;1.00
18690;DHT22;9782;52.930;15.562;2023-07-24T03:11:38;18.90;1.00
18690;DHT22;9782;52.930;15.562;2023-07-24T03:14:05;18.90;1.00
18690;DHT22;9782;52.930;15.562;2023-07-24T03:16:32;18.90;1.00
18690;DHT22;9782;52.930;15.562;2023-07-24T03:18:59;18.90;1.00
18690;DHT22;9782;52.930;15.562;2023-07-24T03:21:26;18.90;1.00
18690;DHT22;9782;52.930;15.562;2023-07-24T03:23:53;18.90;99.90
18690;DHT22;9782;52.930;15.562;2023-07-24T03:26:21;19.00;99.90
18690;DHT22;9782;52.930;15.562;2023-07-24T03:28:48;18.90;99.90
18690;DHT22;9782;52.930;15.562;2023-07-24T03:31:15;18.90;99.90
18690;DHT22;9782;52.930;15.562;2023-07-24T03:33:41;18.90;99.90
18690;DHT22;9782;52.930;15.562;2023-07-24T03:36:08;18.90;99.90
18690;DHT22;9782;52.930;15.562;2023-07-24T03:38:35;18.90;99.90
18690;DHT22;9782;52.930;15.562;2023-07-24T03:41:02;19.00;99.90
18690;DHT22;9782;52.930;15.562;2023-07-24T03:43:30;19.00;99.90
18690;DHT22;9782;52.930;15.562;2023-07-24T03:45:57;19.00;99.90
18690;DHT22;9782;52.930;15.562;2023-07-24T03:48:24;19.10;99.90
18690;DHT22;9782;52.930;15.562;2023-07-24T03:50:58;19.20;99.90
18690;DHT22;9782;52.930;15.562;2023-07-24T03:53:26;19.20;94.50
18690;DHT22;9782;52.930;15.562;2023-07-24T03:55:53;19.20;78.10
18690;DHT22;9782;52.930;15.562;2023-07-24T03:58:20;19.20;11.30
18690;DHT22;9782;52.930;15.562;2023-07-24T04:00:48;19.30;1.00
18690;DHT22;9782;52.930;15.562;2023-07-24T04:03:15;19.40;1.00
18690;DHT22;9782;52.930;15.562;2023-07-24T04:05:42;19.50;1.00
18690;DHT22;9782;52.930;15.562;2023-07-24T04:08:09;19.50;1.00
18690;DHT22;9782;52.930;15.562;2023-07-24T04:10:36;19.60;1.00
18690;DHT22;9782;52.930;15.562;2023-07-24T04:13:03;19.60;1.00
18690;DHT22;9782;52.930;15.562;2023-07-24T04:15:30;19.70;1.00
18690;DHT22;9782;52.930;15.562;2023-07-24T04:17:58;19.70;1.00
18690;DHT22;9782;52.930;15.562;2023-07-24T04:20:25;19.80;1.00
18690;DHT22;9782;52.930;15.562;2023-07-24T04:22:52;19.80;1.00
18690;DHT22;9782;52.930;15.562;2023-07-24T04:25:19;19.80;1.00
18690;DHT22;9782;52.930;15.562;2023-07-24T04:27:45;19.90;1.00
18690;DHT22;9782;52.930;15.562;2023-07-24T04:30:12;19.90;1.00
18690;DHT22;9782;52.930;15.562;2023-07-24T04:32:39;19.90;1.00
18690;DHT22;9782;52.930;15.562;2023-07-24T04:35:08;20.00;99.90
18690;DHT22;9782;52.930;15.562;2023-07-24T04:37:35;20.10;99.90
18690;DHT22;9782;52.930;15.562;2023-07-24T04:40:02;20.20;99.90
18690;DHT22;9782;52.930;15.562;2023-07-24T04:42:29;20.20;99.90
18690;DHT22;9782;52.930;15.562;2023-07-24T04:44:55;20.30;99.90
18690;DHT22;9782;52.930;15.562;2023-07-24T04:47:22;20.40;99.90
18690;DHT22;9782;52.930;15.562;2023-07-24T04:49:49;20.60;76.80
18690;DHT22;9782;52.930;15.562;2023-07-24T04:52:17;20.70;1.00
18690;DHT22;9782;52.930;15.562;2023-07-24T04:54:44;20.90;1.00
18690;DHT22;9782;52.930;15.562;2023-07-24T04:57:11;21.10;1.00
18690;DHT22;9782;52.930;15.562;2023-07-24T04:59:38;21.20;1.00
18690;DHT22;9782;52.930;15.562;2023-07-24T05:02:05;21.20;1.00
18690;DHT22;9782;52.930;15.562;2023-07-24T05:04:32;21.20;1.00
18690;DHT22;9782;52.930;15.562;2023-07-24T05:06:58;21.20;1.00
18690;DHT22;9782;52.930;15.562;2023-07-24T05:09:27;21.10;1.00
18690;DHT22;9782;52.930;15.562;2023-07-24T05:11:53;21.10;1.00
18690;DHT22;9782;52.930;15.562;2023-07-24T05:14:20;21.10;1.00
18690;DHT22;9782;52.930;15.562;2023-07-24T05:16:47;21.10;1.00
18690;DHT22;9782;52.930;15.562;2023-07-24T05:19:14;21.10;1.00
18690;DHT22;9782;52.930;15.562;2023-07-24T05:21:41;21.20;1.00
18690;DHT22;9782;52.930;15.562;2023-07-24T05:24:07;21.20;1.00
18690;DHT22;9782;52.930;15.562;2023-07-24T05:26:36;21.40;1.00
18690;DHT22;9782;52.930;15.562;2023-07-24T05:29:02;21.60;1.00
18690;DHT22;9782;52.930;15.562;2023-07-24T05:31:29;21.80;99.90
18690;DHT22;9782;52.930;15.562;2023-07-24T05:33:56;22.00;99.90
18690;DHT22;9782;52.930;15.562;2023-07-24T05:36:23;22.10;99.90
18690;DHT22;9782;52.930;15.562;2023-07-24T05:38:51;22.30;99.90
18690;DHT22;9782;52.930;15.562;2023-07-24T05:41:18;22.30;60.00
18690;DHT22;9782;52.930;15.562;2023-07-24T05:43:46;22.30;3.20
18690;DHT22;9782;52.930;15.562;2023-07-24T05:46:13;22.40;1.00
18690;DHT22;9782;52.930;15.562;2023-07-24T05:48:40;22.40;1.00
18690;DHT22;9782;52.930;15.562;2023-07-24T05:51:07;22.60;1.00
18690;DHT22;9782;52.930;15.562;2023-07-24T05:53:33;22.80;1.00
18690;DHT22;9782;52.930;15.562;2023-07-24T05:56:03;23.00;1.00
18690;DHT22;9782;52.930;15.562;2023-07-24T05:58:29;23.20;1.00
18690;DHT22;9782;52.930;15.562;2023-07-24T06:00:58;23.40;1.00
18690;DHT22;9782;52.930;15.562;2023-07-24T06:03:25;23.60;1.00
18690;DHT22;9782;52.930;15.562;2023-07-24T06:05:52;23.70;1.00
18690;DHT22;9782;52.930;15.562;2023-07-24T06:08:19;23.80;1.00
18690;DHT22;9782;52.930;15.562;2023-07-24T06:10:47;24.00;1.00
18690;DHT22;9782;52.930;15.562;2023-07-24T06:13:14;24.20;1.00
18690;DHT22;9782;52.930;15.562;2023-07-24T06:15:41;24.30;99.90
18690;DHT22;9782;52.930;15.562;2023-07-24T06:18:09;24.30;99.90
18690;DHT22;9782;52.930;15.562;2023-07-24T06:20:39;24.50;99.90
18690;DHT22;9782;52.930;15.562;2023-07-24T06:23:06;24.70;99.90
18690;DHT22;9782;52.930;15.562;2023-07-24T06:25:33;25.10;99.90
18690;DHT22;9782;52.930;15.562;2023-07-24T06:28:00;25.40;99.90
18690;DHT22;9782;52.930;15.562;2023-07-24T06:30:27;25.70;99.90
18690;DHT22;9782;52.930;15.562;2023-07-24T06:32:53;25.90;99.90
18690;DHT22;9782;52.930;15.562;2023-07-24T06:35:22;25.80;99.90
18690;DHT22;9782;52.930;15.562;2023-07-24T06:37:48;25.60;99.90
18690;DHT22;9782;52.930;15.562;2023-07-24T06:40:15;25.50;99.90
18690;DHT22;9782;52.930;15.562;2023-07-24T06:42:42;25.50;99.90
18690;DHT22;9782;52.930;15.562;2023-07-24T06:45:09;25.60;99.90
18690;DHT22;9782;52.930;15.562;2023-07-24T06:47:36;25.50;99.90
18690;DHT22;9782;52.930;15.562;2023-07-24T06:50:04;25.60;99.90
18690;DHT22;9782;52.930;15.562;2023-07-24T06:52:32;25.60;99.90
18690;DHT22;9782;52.930;15.562;2023-07-24T06:54:59;25.40;99.90
18690;DHT22;9782;52.930;15.562;2023-07-24T06:57:26;25.20;99.90
18690;DHT22;9782;52.930;15.562;2023-07-24T06:59:53;25.10;99.90
18690;DHT22;9782;52.930;15.562;2023-07-24T07:02:20;25.00;99.90
18690;DHT22;9782;52.930;15.562;2023-07-24T07:04:46;25.00;99.90
18690;DHT22;9782;52.930;15.562;2023-07-24T07:07:13;25.10;99.90
18690;DHT22;9782;52.930;15.562;2023-07-24T07:09:41;25.40;99.90
18690;DHT22;9782;52.930;15.562;2023-07-24T07:12:08;25.50;99.90
18690;DHT22;9782;52.930;15.562;2023-07-24T07:14:35;25.80;99.90
18690;DHT22;9782;52.930;15.562;2023-07-24T07:17:02;26.10;99.90
18690;DHT22;9782;52.930;15.562;2023-07-24T07:19:29;26.10;99.90
18690;DHT22;9782;52.930;15.562;2023-07-24T07:21:56;26.10;99.90
18690;DHT22;9782;52.930;15.562;2023-07-24T07:24:23;25.90;99.90
18690;DHT22;9782;52.930;15.562;2023-07-24T07:26:51;25.70;99.90
18690;DHT22;9782;52.930;15.562;2023-07-24T07:29:18;25.60;99.90
18690;DHT22;9782;52.930;15.562;2023-07-24T07:31:44;25.60;99.90
18690;DHT22;9782;52.930;15.562;2023-07-24T07:34:11;25.80;99.90
18690;DHT22;9782;52.930;15.562;2023-07-24T07:36:38;26.10;99.90
18690;DHT22;9782;52.930;15.562;2023-07-24T07:39:05;26.20;99.90
18690;DHT22;9782;52.930;15.562;2023-07-24T07:41:32;26.30;99.90
18690;DHT22;9782;52.930;15.562;2023-07-24T07:44:00;26.40;99.90
18690;DHT22;9782;52.930;15.562;2023-07-24T07:46:27;26.50;99.90
18690;DHT22;9782;52.930;15.562;2023-07-24T07:48:53;26.50;91.80
18690;DHT22;9782;52.930;15.562;2023-07-24T07:51:20;26.40;99.90
18690;DHT22;9782;52.930;15.562;2023-07-24T07:53:49;26.50;99.90
18690;DHT22;9782;52.930;15.562;2023-07-24T07:56:16;26.60;72.60
18690;DHT22;9782;52.930;15.562;2023-07-24T07:58:43;26.60;59.50
18690;DHT22;9782;52.930;15.562;2023-07-24T08:01:11;26.60;52.00
18690;DHT22;9782;52.930;15.562;2023-07-24T08:03:38;26.60;36.60
18690;DHT22;9782;52.930;15.562;2023-07-24T08:06:05;26.50;28.80
18690;DHT22;9782;52.930;15.562;2023-07-24T08:08:32;26.40;21.10
18690;DHT22;9782;52.930;15.562;2023-07-24T08:11:04;26.40;50.10
18690;DHT22;9782;52.930;15.562;2023-07-24T08:13:30;26.40;22.20
18690;DHT22;9782;52.930;15.562;2023-07-24T08:15:57;26.40;19.00
18690;DHT22;9782;52.930;15.562;2023-07-24T08:18:26;26.30;1.70
18690;DHT22;9782;52.930;15.562;2023-07-24T08:20:53;26.00;9.70
18690;DHT22;9782;52.930;15.562;2023-07-24T08:23:19;25.90;18.70
18690;DHT22;9782;52.930;15.562;2023-07-24T08:25:52;25.90;1.00
18690;DHT22;9782;52.930;15.562;2023-07-24T08:28:19;25.70;36.70
18690;DHT22;9782;52.930;15.562;2023-07-24T08:30:55;25.90;67.50
18690;DHT22;9782;52.930;15.562;2023-07-24T08:33:22;26.20;52.30
18690;DHT22;9782;52.930;15.562;2023-07-24T08:35:59;26.30;23.70
18690;DHT22;9782;52.930;15.562;2023-07-24T08:38:26;26.30;1.00
18690;DHT22;9782;52.930;15.562;2023-07-24T08:41:00;26.30;1.00
18690;DHT22;9782;52.930;15.562;2023-07-24T08:43:28;26.30;1.00
18690;DHT22;9782;52.930;15.562;2023-07-24T08:45:56;26.30;1.00
18690;DHT22;9782;52.930;15.562;2023-07-24T08:48:24;26.30;1.00
18690;DHT22;9782;52.930;15.562;2023-07-24T08:50:51;26.20;1.00
18690;DHT22;9782;52.930;15.562;2023-07-24T08:53:21;26.30;1.00
18690;DHT22;9782;52.930;15.562;2023-07-24T08:55:48;26.40;1.00
18690;DHT22;9782;52.930;15.562;2023-07-24T08:58:15;26.50;1.00
18690;DHT22;9782;52.930;15.562;2023-07-24T09:00:42;26.60;1.00
18690;DHT22;9782;52.930;15.562;2023-07-24T09:03:09;26.90;1.00
18690;DHT22;9782;52.930;15.562;2023-07-24T09:05:37;27.10;1.00
18690;DHT22;9782;52.930;15.562;2023-07-24T09:08:04;27.10;1.00
18690;DHT22;9782;52.930;15.562;2023-07-24T09:10:32;27.20;1.00
18690;DHT22;9782;52.930;15.562;2023-07-24T09:12:59;27.40;1.00
18690;DHT22;9782;52.930;15.562;2023-07-24T09:15:29;27.70;1.00
18690;DHT22;9782;52.930;15.562;2023-07-24T09:17:56;27.90;1.00
18690;DHT22;9782;52.930;15.562;2023-07-24T09:20:22;28.20;1.00
18690;DHT22;9782;52.930;15.562;2023-07-24T09:22:49;28.40;1.00
18690;DHT22;9782;52.930;15.562;2023-07-24T09:25:17;28.50;1.00
18690;DHT22;9782;52.930;15.562;2023-07-24T09:27:45;28.70;1.00
18690;DHT22;9782;52.930;15.562;2023-07-24T09:30:12;28.70;1.00
18690;DHT22;9782;52.930;15.562;2023-07-24T09:32:40;28.70;1.00
18690;DHT22;9782;52.930;15.562;2023-07-24T09:35:16;28.80;1.00
18690;DHT22;9782;52.930;15.562;2023-07-24T09:37:44;28.90;1.00
18690;DHT22;9782;52.930;15.562;2023-07-24T09:40:12;28.90;1.00
18690;DHT22;9782;52.930;15.562;2023-07-24T09:42:40;29.10;1.00
18690;DHT22;9782;52.930;15.562;2023-07-24T09:45:09;29.10;1.00
18690;DHT22;9782;52.930;15.562;2023-07-24T09:47:37;29.20;1.00
18690;DHT22;9782;52.930;15.562;2023-07-24T09:50:06;29.20;1.00
18690;DHT22;9782;52.930;15.562;2023-07-24T09:52:36;29.20;1.00
18690;DHT22;9782;52.930;15.562;2023-07-24T09:55:11;29.20;1.00
18690;DHT22;9782;52.930;15.562;2023-07-24T09:57:39;29.30;1.00
18690;DHT22;9782;52.930;15.562;2023-07-24T10:00:09;29.40;1.00
18690;DHT22;9782;52.930;15.562;2023-07-24T10:02:36;29.60;1.00
18690;DHT22;9782;52.930;15.562;2023-07-24T10:05:04;29.80;1.00
18690;DHT22;9782;52.930;15.562;2023-07-24T10:07:31;30.10;1.00
18690;DHT22;9782;52.930;15.562;2023-07-24T10:09:58;30.20;1.00
18690;DHT22;9782;52.930;15.562;2023-07-24T10:12:25;30.40;1.00
18690;DHT22;9782;52.930;15.562;2023-07-24T10:14:56;30.40;1.00
18690;DHT22;9782;52.930;15.562;2023-07-24T10:17:38;30.60;1.00
18690;DHT22;9782;52.930;15.562;2023-07-24T10:20:06;30.80;1.00
18690;DHT22;9782;52.930;15.562;2023-07-24T10:22:34;31.00;1.00
18690;DHT22;9782;52.930;15.562;2023-07-24T10:25:01;31.00;1.00
18690;DHT22;9782;52.930;15.562;2023-07-24T10:27:28;30.80;1.00
18690;DHT22;9782;52.930;15.562;2023-07-24T10:29:59;30.60;1.00
18690;DHT22;9782;52.930;15.562;2023-07-24T10:32:26;30.50;1.00
18690;DHT22;9782;52.930;15.562;2023-07-24T10:34:59;30.50;1.00
18690;DHT22;9782;52.930;15.562;2023-07-24T10:37:32;30.50;1.00
18690;DHT22;9782;52.930;15.562;2023-07-24T10:40:00;30.60;1.00
18690;DHT22;9782;52.930;15.562;2023-07-24T10:42:26;30.60;1.00
18690;DHT22;9782;52.930;15.562;2023-07-24T10:45:03;30.70;1.00
18690;DHT22;9782;52.930;15.562;2023-07-24T10:47:30;30.50;1.00
18690;DHT22;9782;52.930;15.562;2023-07-24T10:49:59;30.60;1.00
18690;DHT22;9782;52.930;15.562;2023-07-24T10:52:30;30.70;1.00
18690;DHT22;9782;52.930;15.562;2023-07-24T10:55:00;30.80;1.00
18690;DHT22;9782;52.930;15.562;2023-07-24T10:57:27;30.70;1.00
18690;DHT22;9782;52.930;15.562;2023-07-24T10:59:54;30.70;1.00
18690;DHT22;9782;52.930;15.562;2023-07-24T11:02:21;30.70;1.00
18690;DHT22;9782;52.930;15.562;2023-07-24T11:04:48;30.70;1.00
18690;DHT22;9782;52.930;15.562;2023-07-24T11:07:16;30.70;1.00
18690;DHT22;9782;52.930;15.562;2023-07-24T11:09:43;30.80;1.00
18690;DHT22;9782;52.930;15.562;2023-07-24T11:12:12;31.00;1.00
18690;DHT22;9782;52.930;15.562;2023-07-24T11:14:49;31.30;1.00
18690;DHT22;9782;52.930;15.562;2023-07-24T11:17:16;31.60;1.00
18690;DHT22;9782;52.930;15.562;2023-07-24T11:19:43;31.70;1.00
18690;DHT22;9782;52.930;15.562;2023-07-24T11:22:10;31.90;1.00
18690;DHT22;9782;52.930;15.562;2023-07-24T11:24:46;31.90;1.00
18690;DHT22;9782;52.930;15.562;2023-07-24T11:27:14;31.90;1.00
18690;DHT22;9782;52.930;15.562;2023-07-24T11:29:46;31.90;1.00
18690;DHT22;9782;52.930;15.562;2023-07-24T11:32:17;32.00;1.00
18690;DHT22;9782;52.930;15.562;2023-07-24T11:34:44;32.10;1.00
18690;DHT22;9782;52.930;15.562;2023-07-24T11:37:11;32.20;99.90
18690;DHT22;9782;52.930;15.562;2023-07-24T11:39:38;32.30;99.90
18690;DHT22;9782;52.930;15.562;2023-07-24T11:42:07;32.20;99.90
18690;DHT22;9782;52.930;15.562;2023-07-24T11:44:34;32.10;99.90
18690;DHT22;9782;52.930;15.562;2023-07-24T11:47:01;32.10;99.90
18690;DHT22;9782;52.930;15.562;2023-07-24T11:49:28;32.20;99.90
18690;DHT22;9782;52.930;15.562;2023-07-24T11:52:00;32.20;99.90
18690;DHT22;9782;52.930;15.562;2023-07-24T11:54:27;32.10;99.90
18690;DHT22;9782;52.930;15.562;2023-07-24T11:56:54;32.30;99.90
18690;DHT22;9782;52.930;15.562;2023-07-24T11:59:24;32.30;99.90
18690;DHT22;9782;52.930;15.562;2023-07-24T12:01:50;32.40;99.90
18690;DHT22;9782;52.930;15.562;2023-07-24T12:04:18;32.30;99.90
18690;DHT22;9782;52.930;15.562;2023-07-24T12:06:45;32.30;99.90
18690;DHT22;9782;52.930;15.562;2023-07-24T12:09:12;32.30;99.90
18690;DHT22;9782;52.930;15.562;2023-07-24T12:11:40;32.30;99.90
18690;DHT22;9782;52.930;15.562;2023-07-24T12:14:07;32.20;99.90
18690;DHT22;9782;52.930;15.562;2023-07-24T12:16:36;32.20;99.90
18690;DHT22;9782;52.930;15.562;2023-07-24T12:19:03;32.10;99.90
18690;DHT22;9782;52.930;15.562;2023-07-24T12:21:29;32.10;99.90
18690;DHT22;9782;52.930;15.562;2023-07-24T12:23:56;32.10;99.90
18690;DHT22;9782;52.930;15.562;2023-07-24T12:26:23;32.20;99.90
18690;DHT22;9782;52.930;15.562;2023-07-24T12:28:51;32.30;99.90
18690;DHT22;9782;52.930;15.562;2023-07-24T12:31:18;32.40;99.90
18690;DHT22;9782;52.930;15.562;2023-07-24T12:33:46;32.30;99.90
18690;DHT22;9782;52.930;15.562;2023-07-24T12:36:13;32.10;99.90
18690;DHT22;9782;52.930;15.562;2023-07-24T12:38:40;32.10;99.90
18690;DHT22;9782;52.930;15.562;2023-07-24T12:41:07;31.90;99.90
18690;DHT22;9782;52.930;15.562;2023-07-24T12:43:34;31.90;99.90
18690;DHT22;9782;52.930;15.562;2023-07-24T12:46:00;31.90;99.90
18690;DHT22;9782;52.930;15.562;2023-07-24T12:48:27;31.90;99.90
18690;DHT22;9782;52.930;15.562;2023-07-24T12:50:58;31.80;99.90
18690;DHT22;9782;52.930;15.562;2023-07-24T12:53:26;31.70;99.90
18690;DHT22;9782;52.930;15.562;2023-07-24T12:55:53;31.60;99.90
18690;DHT22;9782;52.930;15.562;2023-07-24T12:58:20;31.70;99.90
18690;DHT22;9782;52.930;15.562;2023-07-24T13:00:47;32.10;99.90
18690;DHT22;9782;52.930;15.562;2023-07-24T13:03:13;32.50;99.90
18690;DHT22;9782;52.930;15.562;2023-07-24T13:05:40;32.80;99.90
18690;DHT22;9782;52.930;15.562;2023-07-24T13:08:08;32.80;99.90
18690;DHT22;9782;52.930;15.562;2023-07-24T13:10:35;32.70;99.90
18690;DHT22;9782;52.930;15.562;2023-07-24T19:13:48;20.20;99.90
18690;DHT22;9782;52.930;15.562;2023-07-24T19:16:15;20.20;99.90
18690;DHT22;9782;52.930;15.562;2023-07-24T19:54:58;20.10;99.90
18690;DHT22;9782;52.930;15.562;2023-07-24T19:57:25;20.10;99.90
18690;DHT22;9782;52.930;15.562;2023-07-24T19:59:52;20.10;99.90
18690;DHT22;9782;52.930;15.562;2023-07-24T20:02:19;20.10;1.00
18690;DHT22;9782;52.930;15.562;2023-07-24T20:04:46;20.10;1.00
18690;DHT22;9782;52.930;15.562;2023-07-24T20:07:13;20.00;1.00
18690;DHT22;9782;52.930;15.562;2023-07-24T20:09:40;20.00;23.30
18690;DHT22;9782;52.930;15.562;2023-07-24T20:17:19;19.80;99.90
18690;DHT22;9782;52.930;15.562;2023-07-24T20:19:46;19.80;99.90
18690;DHT22;9782;52.930;15.562;2023-07-24T20:22:13;19.80;99.90
18690;DHT22;9782;52.930;15.562;2023-07-24T20:24:42;19.70;99.90
18690;DHT22;9782;52.930;15.562;2023-07-24T20:27:09;19.70;99.90
18690;DHT22;9782;52.930;15.562;2023-07-24T20:29:36;19.60;99.90
18690;DHT22;9782;52.930;15.562;2023-07-24T20:32:04;19.60;99.90
18690;DHT22;9782;52.930;15.562;2023-07-24T20:34:32;19.50;99.90
18690;DHT22;9782;52.930;15.562;2023-07-24T20:37:00;19.50;1.00
18690;DHT22;9782;52.930;15.562;2023-07-24T20:39:27;19.60;99.90
18690;DHT22;9782;52.930;15.562;2023-07-24T20:41:53;19.60;99.90
18690;DHT22;9782;52.930;15.562;2023-07-24T20:44:20;19.60;99.90
18690;DHT22;9782;52.930;15.562;2023-07-24T20:46:47;19.60;99.90
18690;DHT22;9782;52.930;15.562;2023-07-24T20:49:14;19.40;99.90
18690;DHT22;9782;52.930;15.562;2023-07-24T20:51:45;19.30;99.90
18690;DHT22;9782;52.930;15.562;2023-07-24T20:54:12;19.20;1.00
18690;DHT22;9782;52.930;15.562;2023-07-24T20:56:39;19.10;99.90
